Time;durP1;ratioP1;P1;durP2;ratioP2;P2;SDS_P1;SDS_P2;PMS_P1;PMS_P2;Temp;Humidity;BMP_temperature;BMP_pressure;BME280_temperature;BME280_humidity;BME280_pressure;Samples;Min_cycle;Max_cycle;Signal;HPM_P1;HPM_P2
2022/07/13 00:00:26;;;;;;;7.15;6.40;;;;;;;22.56;100.00;102044.75;5094899;28;20059;-71
2022/07/13 00:02:52;;;;;;;7.95;5.70;;;;;;;22.51;100.00;102038.56;5095010;28;20106;-70
2022/07/13 00:05:17;;;;;;;8.52;5.97;;;;;;;22.54;100.00;102035.81;5108419;28;20545;-70
2022/07/13 00:07:43;;;;;;;8.15;5.55;;;;;;;22.56;100.00;102025.97;5096860;28;20437;-71
2022/07/13 00:10:08;;;;;;;8.15;6.40;;;;;;;22.58;100.00;102019.69;5101496;28;20052;-70
2022/07/13 00:12:34;;;;;;;8.52;6.05;;;;;;;22.55;100.00;102023.31;5076439;28;20020;-71
2022/07/13 00:14:59;;;;;;;11.02;6.35;;;;;;;22.56;100.00;102023.28;5095130;28;20077;-71
2022/07/13 00:17:24;;;;;;;9.27;6.07;;;;;;;22.52;100.00;102023.38;5101324;28;20069;-71
2022/07/13 00:19:50;;;;;;;6.07;5.38;;;;;;;22.54;100.00;102021.53;5083528;28;20036;-72
2022/07/13 00:22:15;;;;;;;11.32;5.75;;;;;;;22.49;100.00;102018.03;5108077;28;20024;-70
2022/07/13 00:24:40;;;;;;;7.88;5.05;;;;;;;22.41;100.00;102015.47;5107440;28;20110;-71
2022/07/13 00:27:06;;;;;;;6.60;5.90;;;;;;;22.27;100.00;102015.59;5115047;28;20035;-71
2022/07/13 00:29:31;;;;;;;9.15;6.72;;;;;;;22.18;100.00;102013.94;5114895;28;20076;-71
2022/07/13 00:31:57;;;;;;;21.70;5.80;;;;;;;22.13;100.00;102015.78;5109198;28;20483;-71
2022/07/13 00:34:22;;;;;;;6.50;5.30;;;;;;;22.08;100.00;102009.59;5094590;28;20077;-71
2022/07/13 00:36:47;;;;;;;7.63;5.75;;;;;;;22.07;100.00;102007.84;5094325;28;20365;-70
2022/07/13 00:39:13;;;;;;;10.55;6.13;;;;;;;22.01;100.00;102007.91;5093919;28;20024;-71
2022/07/13 00:41:45;;;;;;;6.85;5.88;;;;;;;21.99;100.00;102005.25;5093500;28;20103;-71
2022/07/13 00:44:11;;;;;;;8.75;5.60;;;;;;;21.97;100.00;102014.22;5076456;28;20036;-70
2022/07/13 00:46:37;;;;;;;7.82;6.05;;;;;;;21.99;100.00;102009.72;5094486;28;20504;-71
2022/07/13 00:49:03;;;;;;;6.20;5.47;;;;;;;21.99;100.00;102009.72;5094761;28;20498;-70
2022/07/13 00:51:30;;;;;;;7.28;5.88;;;;;;;22.00;100.00;101998.09;5094231;28;20024;-71
2022/07/13 00:53:56;;;;;;;8.05;6.03;;;;;;;22.06;100.00;101992.66;5093970;28;20452;-72
2022/07/13 00:56:22;;;;;;;6.35;5.22;;;;;;;22.11;100.00;101987.22;5094519;28;20020;-69
2022/07/13 00:58:47;;;;;;;8.85;5.60;;;;;;;22.15;100.00;101989.88;5093888;28;20470;-71
2022/07/13 01:01:13;;;;;;;7.80;5.85;;;;;;;22.16;100.00;101983.56;5094174;28;20028;-71
2022/07/13 01:03:38;;;;;;;8.98;6.10;;;;;;;22.18;100.00;101987.13;5075765;28;20406;-70
2022/07/13 01:06:05;;;;;;;9.93;6.18;;;;;;;22.18;100.00;101983.59;5093836;28;20073;-71
2022/07/13 01:08:33;;;;;;;8.50;5.93;;;;;;;22.19;100.00;101972.84;5107083;28;20063;-71
2022/07/13 01:10:58;;;;;;;11.52;5.97;;;;;;;22.23;100.00;101961.16;5094047;28;20024;-71
2022/07/13 01:13:25;;;;;;;7.60;5.32;;;;;;;22.27;100.00;101966.47;5094174;28;20379;-72
2022/07/13 01:15:50;;;;;;;6.65;5.55;;;;;;;22.33;100.00;101971.75;5099887;28;20031;-70
2022/07/13 01:18:16;;;;;;;7.50;6.03;;;;;;;22.36;100.00;101966.38;5102989;28;20028;-71
2022/07/13 01:20:42;;;;;;;7.35;5.65;;;;;;;22.39;100.00;101966.31;5101110;28;20023;-69
2022/07/13 01:23:09;;;;;;;8.07;5.35;;;;;;;22.40;100.00;101968.09;5109073;28;20070;-71
2022/07/13 01:25:35;;;;;;;10.70;6.03;;;;;;;22.38;100.00;101964.53;5100442;28;20020;-71
2022/07/13 01:28:01;;;;;;;7.72;5.70;;;;;;;22.33;100.00;101972.63;5114118;28;20066;-71
2022/07/13 01:30:26;;;;;;;9.45;5.43;;;;;;;22.30;100.00;101961.03;5093880;28;20024;-69
2022/07/13 01:32:52;;;;;;;9.02;5.55;;;;;;;22.28;100.00;101957.53;5093562;28;20031;-70
2022/07/13 01:35:19;;;;;;;8.80;5.38;;;;;;;22.29;100.00;101968.22;5093963;28;20027;-71
2022/07/13 01:37:44;;;;;;;5.85;5.22;;;;;;;22.28;100.00;101970.94;5093486;28;20028;-71
2022/07/13 01:40:10;;;;;;;8.60;5.13;;;;;;;22.29;100.00;101975.34;5093815;28;20510;-71
2022/07/13 01:42:47;;;;;;;5.47;4.75;;;;;;;22.29;100.00;101964.63;5093564;28;20480;-71
2022/07/13 01:45:15;;;;;;;9.48;4.88;;;;;;;22.31;100.00;101970.88;5093324;28;20020;-71
2022/07/13 01:47:43;;;;;;;7.78;5.10;;;;;;;22.28;100.00;101962.88;5075784;28;20031;-71
2022/07/13 01:50:10;;;;;;;9.52;5.30;;;;;;;22.31;100.00;101952.09;5093622;28;20039;-70
2022/07/13 01:52:35;;;;;;;11.65;6.05;;;;;;;22.36;100.00;101955.66;5093265;28;20060;-70
2022/07/13 01:55:02;;;;;;;9.05;6.00;;;;;;;22.39;100.00;101960.94;5098426;28;20012;-71
2022/07/13 01:57:28;;;;;;;7.97;5.40;;;;;;;22.40;100.00;101952.88;5097492;28;20034;-70
2022/07/13 02:00:01;;;;;;;12.68;5.43;;;;;;;22.40;100.00;101947.50;5097130;28;20031;-71
2022/07/13 02:02:26;;;;;;;8.48;5.38;;;;;;;22.43;100.00;101951.94;5079259;28;20376;-71
2022/07/13 02:04:52;;;;;;;8.10;4.95;;;;;;;22.44;100.00;101931.41;5097453;28;20024;-70
2022/07/13 02:07:17;;;;;;;6.68;4.90;;;;;;;22.47;100.00;101929.53;5097003;28;20475;-71
2022/07/13 02:09:43;;;;;;;16.02;5.30;;;;;;;22.48;100.00;101931.31;5097122;28;20472;-70
2022/07/13 02:12:08;;;;;;;6.35;4.95;;;;;;;22.52;100.00;101935.72;5100241;28;20066;-70
2022/07/13 02:14:33;;;;;;;7.75;4.68;;;;;;;22.49;100.00;101933.09;5117204;28;20111;-71
2022/07/13 02:16:59;;;;;;;8.25;5.03;;;;;;;22.48;100.00;101931.31;5117607;28;20047;-71
2022/07/13 02:19:24;;;;;;;5.85;4.88;;;;;;;22.51;100.00;101933.94;5107737;28;20047;-71
2022/07/13 02:21:49;;;;;;;5.88;4.40;;;;;;;22.49;100.00;101933.09;5110733;28;20032;-71
2022/07/13 02:24:15;;;;;;;7.47;4.22;;;;;;;22.47;100.00;101932.22;5072571;28;20085;-73
2022/07/13 02:26:40;;;;;;;8.75;5.00;;;;;;;22.48;100.00;101933.13;5110900;28;20493;-71
2022/07/13 02:29:05;;;;;;;9.00;4.22;;;;;;;22.47;100.00;101929.53;5096665;28;20016;-71
2022/07/13 02:31:33;;;;;;;5.68;4.70;;;;;;;;;;5098547;28;20038;-70
2022/07/13 02:33:59;;;;;;;10.07;5.20;;;;;;;22.45;100.00;101926.00;5108009;28;20613;-71
2022/07/13 02:36:24;;;;;;;6.68;5.28;;;;;;;22.38;100.00;101921.63;5096730;28;20022;-71
2022/07/13 02:38:50;;;;;;;6.43;4.75;;;;;;;22.36;100.00;101931.50;5096626;28;20115;-70
2022/07/13 02:41:15;;;;;;;7.78;4.72;;;;;;;22.30;100.00;101928.88;5096584;28;20494;-70
2022/07/13 02:43:40;;;;;;;8.55;4.75;;;;;;;22.34;100.00;101925.22;5096490;28;20539;-70
2022/07/13 02:46:06;;;;;;;7.03;4.68;;;;;;;22.37;100.00;101919.88;5096343;28;20020;-71
2022/07/13 02:48:33;;;;;;;6.43;4.72;;;;;;;22.37;100.00;101919.88;5096119;28;20494;-71
2022/07/13 02:50:58;;;;;;;9.05;4.88;;;;;;;22.36;100.00;101918.09;5078235;28;20047;-70
2022/07/13 02:53:24;;;;;;;6.95;5.10;;;;;;;22.39;100.00;101923.41;5096139;28;20130;-71
2022/07/13 02:55:49;;;;;;;5.90;4.75;;;;;;;22.34;100.00;101920.81;5097647;28;20024;-71
2022/07/13 02:58:15;;;;;;;5.80;4.72;;;;;;;22.31;100.00;101919.94;5096130;28;20032;-71
2022/07/13 03:00:40;;;;;;;6.50;4.72;;;;;;;22.33;100.00;101924.38;5096298;28;20462;-71
2022/07/13 03:03:05;;;;;;;10.60;4.60;;;;;;;22.33;100.00;101907.41;5096156;28;20472;-70
2022/07/13 03:05:31;;;;;;;7.30;4.88;;;;;;;22.31;100.00;101907.41;5094858;28;20035;-71
2022/07/13 03:07:56;;;;;;;11.43;5.00;;;;;;;22.29;100.00;101903.88;5095932;28;20055;-70
2022/07/13 03:10:21;;;;;;;7.07;4.60;;;;;;;22.32;100.00;101900.25;5109634;28;20020;-70
2022/07/13 03:12:47;;;;;;;7.32;4.55;;;;;;;22.31;100.00;101898.47;5104917;28;20039;-71
2022/07/13 03:15:12;;;;;;;7.43;4.75;;;;;;;22.30;100.00;101891.34;5100736;28;20020;-71
2022/07/13 03:17:40;;;;;;;7.53;4.85;;;;;;;22.29;100.00;101882.41;5095805;28;20070;-70
2022/07/13 03:20:07;;;;;;;5.32;4.47;;;;;;;22.30;100.00;101888.66;5098317;28;20025;-71
2022/07/13 03:22:32;;;;;;;6.05;5.00;;;;;;;22.29;100.00;101894.91;5104426;28;20035;-71
2022/07/13 03:24:58;;;;;;;8.80;4.70;;;;;;;22.27;100.00;101900.31;5114363;28;20073;-71
2022/07/13 03:27:23;;;;;;;7.47;5.53;;;;;;;22.26;100.00;101895.88;5095786;28;20031;-71
2022/07/13 03:29:48;;;;;;;7.60;5.00;;;;;;;22.24;100.00;101898.56;5095426;28;20024;-71
2022/07/13 03:32:14;;;;;;;6.22;4.65;;;;;;;22.22;100.00;101896.84;5095906;28;20501;-70
2022/07/13 03:34:40;;;;;;;11.05;5.32;;;;;;;22.22;100.00;101892.34;5095797;28;20023;-69
2022/07/13 03:37:06;;;;;;;8.65;5.40;;;;;;;22.17;100.00;101896.88;5095538;28;20425;-70
2022/07/13 03:39:32;;;;;;;9.75;5.07;;;;;;;22.20;100.00;101896.84;5095259;28;20103;-71
2022/07/13 03:41:57;;;;;;;7.13;5.15;;;;;;;22.16;100.00;101900.47;5095314;28;20051;-70
2022/07/13 03:44:22;;;;;;;7.20;5.78;;;;;;;22.13;100.00;101896.97;5091065;28;20352;-71
2022/07/13 03:46:47;;;;;;;6.03;5.00;;;;;;;22.14;100.00;101896.94;5095219;28;20039;-71
2022/07/13 03:49:13;;;;;;;9.57;5.93;;;;;;;22.11;100.00;101902.34;5110362;28;20509;-71
2022/07/13 03:51:40;;;;;;;6.65;5.15;;;;;;;22.14;100.00;101902.31;5115583;28;20027;-71
2022/07/13 03:54:06;;;;;;;7.47;5.50;;;;;;;22.14;100.00;101906.75;5113796;28;20065;-70
2022/07/13 03:56:31;;;;;;;7.45;5.40;;;;;;;22.16;100.00;101897.78;5115221;28;20016;-71
2022/07/13 03:58:57;;;;;;;8.05;5.13;;;;;;;22.18;100.00;101890.63;5115228;28;20422;-70
2022/07/13 04:01:22;;;;;;;10.00;5.65;;;;;;;22.17;100.00;101891.53;5115374;28;20019;-70
2022/07/13 04:03:47;;;;;;;6.32;5.15;;;;;;;22.15;100.00;101885.31;5115300;28;20019;-70
2022/07/13 04:06:13;;;;;;;10.38;5.32;;;;;;;22.19;100.00;101892.41;5115503;28;20024;-69
2022/07/13 04:08:38;;;;;;;9.88;5.40;;;;;;;22.20;100.00;101886.09;5115231;28;20020;-70
2022/07/13 04:11:04;;;;;;;8.98;4.82;;;;;;;22.20;100.00;101891.47;5115479;28;20030;-70
2022/07/13 04:13:29;;;;;;;8.23;5.63;;;;;;;22.23;100.00;101895.91;5114849;28;20031;-70
2022/07/13 04:15:55;;;;;;;8.52;5.85;;;;;;;22.22;100.00;101883.44;5115091;28;20462;-71
2022/07/13 04:18:20;;;;;;;6.57;4.60;;;;;;;22.23;100.00;101893.22;5114929;28;20059;-70
2022/07/13 04:20:46;;;;;;;10.32;5.20;;;;;;;22.20;100.00;101907.56;5115263;28;20378;-71
2022/07/13 04:23:11;;;;;;;8.80;4.70;;;;;;;22.21;100.00;101895.94;5101383;28;20470;-71
2022/07/13 04:25:36;;;;;;;9.38;4.40;;;;;;;22.26;100.00;101889.59;5115316;28;20107;-71
2022/07/13 04:28:02;;;;;;;7.28;5.10;;;;;;;22.24;100.00;101895.88;5114880;28;20054;-71
2022/07/13 04:30:28;;;;;;;6.60;4.65;;;;;;;22.18;100.00;101882.59;5114937;28;20031;-71
2022/07/13 04:32:53;;;;;;;6.78;4.43;;;;;;;22.23;100.00;101886.09;5114918;28;20036;-71
2022/07/13 04:35:19;;;;;;;10.40;4.95;;;;;;;22.25;100.00;101888.72;5114917;28;20132;-71
2022/07/13 04:37:44;;;;;;;6.13;4.05;;;;;;;22.26;100.00;101882.47;5114684;28;20020;-71
2022/07/13 04:40:10;;;;;;;5.93;4.43;;;;;;;22.27;100.00;101880.66;5114710;28;20019;-70
2022/07/13 04:42:36;;;;;;;9.07;4.13;;;;;;;22.24;100.00;101882.47;5100728;28;20632;-71
2022/07/13 04:45:01;;;;;;;9.52;4.13;;;;;;;22.28;100.00;101887.81;5094241;28;20055;-71
2022/07/13 04:47:26;;;;;;;6.47;3.90;;;;;;;22.28;100.00;101883.31;5108073;28;20051;-71
2022/07/13 04:49:52;;;;;;;7.15;3.70;;;;;;;22.30;100.00;101883.28;5100780;28;20383;-71
2022/07/13 04:52:17;;;;;;;6.50;3.55;;;;;;;22.30;100.00;101883.28;5101070;28;20069;-71
2022/07/13 04:54:42;;;;;;;7.90;3.70;;;;;;;22.27;100.00;101883.34;5095366;28;20052;-71
2022/07/13 04:57:08;;;;;;;6.50;3.60;;;;;;;22.30;100.00;101889.56;5076087;28;20490;-70
2022/07/13 04:59:33;;;;;;;7.35;3.38;;;;;;;22.32;100.00;101881.47;5093653;28;20020;-71
2022/07/13 05:01:58;;;;;;;11.77;3.45;;;;;;;22.27;100.00;101886.03;5093869;28;20062;-71
2022/07/13 05:04:24;;;;;;;10.13;3.58;;;;;;;22.32;100.00;101894.88;5093592;28;20023;-71
2022/07/13 05:06:49;;;;;;;5.50;2.97;;;;;;;22.30;100.00;101888.66;5094156;28;20028;-71
2022/07/13 05:09:15;;;;;;;8.48;3.50;;;;;;;22.28;100.00;101877.97;5075592;28;20376;-71
2022/07/13 05:11:40;;;;;;;5.40;3.20;;;;;;;22.27;100.00;101886.03;5106701;28;20023;-71
2022/07/13 05:14:06;;;;;;;4.78;2.83;;;;;;;22.32;100.00;101889.53;5094646;28;20456;-71
2022/07/13 05:16:31;;;;;;;5.10;2.95;;;;;;;22.29;100.00;101889.56;5093863;28;20028;-70
2022/07/13 05:18:57;;;;;;;8.60;2.83;;;;;;;22.26;100.00;101884.25;5095763;28;20380;-71
2022/07/13 05:21:22;;;;;;;5.57;2.70;;;;;;;22.24;100.00;101895.00;5093790;28;20468;-70
2022/07/13 05:23:48;;;;;;;6.25;3.10;;;;;;;22.27;100.00;101896.75;5102211;28;20023;-71
2022/07/13 05:26:13;;;;;;;5.22;2.80;;;;;;;22.23;100.00;101894.13;5106282;28;20020;-70
2022/07/13 05:28:38;;;;;;;4.47;2.53;;;;;;;22.32;100.00;101886.84;5110279;28;20089;-70
2022/07/13 05:31:04;;;;;;;5.15;2.95;;;;;;;22.34;100.00;101887.69;5097690;28;20023;-71
2022/07/13 05:33:30;;;;;;;3.47;2.95;;;;;;;22.26;100.00;101894.97;5079844;28;20031;-70
2022/07/13 05:35:55;;;;;;;7.05;3.08;;;;;;;22.24;100.00;101898.56;5109998;28;20375;-72
2022/07/13 05:38:21;;;;;;;12.00;2.85;;;;;;;22.23;100.00;101896.81;5118032;28;20078;-71
2022/07/13 05:40:46;;;;;;;4.65;3.03;;;;;;;22.27;100.00;101899.44;5106152;28;20058;-70
2022/07/13 05:43:13;;;;;;;8.02;3.20;;;;;;;22.20;100.00;101904.00;5102869;28;20019;-71
2022/07/13 05:45:38;;;;;;;5.95;3.35;;;;;;;22.16;100.00;101900.47;5088002;28;20142;-71
2022/07/13 05:48:04;;;;;;;6.10;3.38;;;;;;;22.19;100.00;101905.81;5103181;28;20487;-70
2022/07/13 05:50:29;;;;;;;6.15;3.42;;;;;;;22.17;100.00;101907.59;5106074;28;20019;-71
2022/07/13 05:52:54;;;;;;;7.32;3.20;;;;;;;22.10;100.00;101911.31;5097178;28;20127;-71
2022/07/13 05:55:20;;;;;;;4.38;3.40;;;;;;;22.17;100.00;101912.97;5079972;28;20107;-70
2022/07/13 05:57:45;;;;;;;6.07;3.20;;;;;;;22.23;100.00;101918.25;5097969;28;20077;-71
2022/07/13 06:00:13;;;;;;;4.82;3.63;;;;;;;22.19;100.00;101916.53;5091077;28;20459;-71
2022/07/13 06:02:39;;;;;;;9.52;4.75;;;;;;;22.22;100.00;101916.47;5080510;28;20455;-72
2022/07/13 06:05:05;;;;;;;9.25;4.47;;;;;;;22.23;100.00;101922.72;5097213;28;20414;-71
2022/07/13 06:07:30;;;;;;;9.52;4.38;;;;;;;22.29;100.00;101919.97;5084308;28;20129;-71
2022/07/13 06:10:00;;;;;;;6.90;4.63;;;;;;;22.32;100.00;101916.34;5105823;28;20024;-73
2022/07/13 06:12:25;;;;;;;9.50;4.43;;;;;;;22.35;100.00;101910.97;5096939;28;20468;-72
2022/07/13 06:14:52;;;;;;;10.02;4.70;;;;;;;22.28;100.00;101919.97;5097114;28;20031;-70
2022/07/13 06:17:18;;;;;;;5.68;4.18;;;;;;;22.21;100.00;101916.50;5097133;28;20024;-70
2022/07/13 06:19:43;;;;;;;10.27;4.90;;;;;;;22.24;100.00;101913.78;5099198;28;20472;-70
2022/07/13 06:22:09;;;;;;;5.18;4.50;;;;;;;22.25;100.00;101920.91;5110425;28;20073;-71
2022/07/13 06:24:34;;;;;;;6.25;3.67;;;;;;;22.23;100.00;101918.25;5109131;28;20026;-70
2022/07/13 06:26:59;;;;;;;8.80;4.25;;;;;;;22.26;100.00;101920.00;5117239;28;20103;-71
2022/07/13 06:29:24;;;;;;;8.32;3.80;;;;;;;22.33;100.00;101918.13;5117083;28;20026;-70
2022/07/13 06:31:50;;;;;;;8.77;4.53;;;;;;;22.38;100.00;101916.25;5103476;28;20042;-71
2022/07/13 06:34:15;;;;;;;6.55;3.67;;;;;;;22.47;100.00;101915.25;5105216;28;20442;-70
2022/07/13 06:36:40;;;;;;;6.90;3.97;;;;;;;22.44;100.00;101918.88;5096891;28;20440;-70
2022/07/13 06:39:06;;;;;;;3.83;3.40;;;;;;;22.38;100.00;101914.50;5095990;28;20454;-72
2022/07/13 06:41:31;;;;;;;7.18;4.10;;;;;;;22.40;100.00;101919.81;5114159;28;20024;-71
2022/07/13 06:43:57;;;;;;;13.43;4.00;;;;;;;22.41;100.00;101916.25;5105355;28;20035;-71
2022/07/13 06:46:23;;;;;;;7.65;3.40;;;;;;;22.42;100.00;101912.63;5096124;28;20034;-71
2022/07/13 06:48:48;;;;;;;8.65;3.90;;;;;;;22.44;100.00;101916.19;5106197;28;20077;-71
2022/07/13 06:51:14;;;;;;;4.57;3.53;;;;;;;22.55;100.00;101916.88;5096215;28;20027;-71
2022/07/13 06:53:39;;;;;;;6.47;3.70;;;;;;;22.60;100.00;101915.91;5107268;28;20055;-71
2022/07/13 06:56:05;;;;;;;5.65;3.13;;;;;;;22.57;100.00;101922.22;5097428;28;20479;-71
2022/07/13 06:58:30;;;;;;;7.15;3.22;;;;;;;22.62;100.00;101924.84;5106939;28;20515;-71
2022/07/13 07:00:55;;;;;;;5.32;3.35;;;;;;;22.63;100.00;101926.63;5098169;28;20030;-70
2022/07/13 07:03:21;;;;;;;4.68;3.42;;;;;;;22.63;100.00;101921.25;5106086;28;20349;-72
2022/07/13 07:05:46;;;;;;;6.40;2.90;;;;;;;22.63;100.00;101921.25;5096132;28;20383;-70
2022/07/13 07:08:11;;;;;;;4.25;2.78;;;;;;;22.62;100.00;101930.22;5096011;28;20074;-72
2022/07/13 07:10:37;;;;;;;8.27;3.42;;;;;;;22.64;100.00;101931.06;5113241;28;20386;-71
2022/07/13 07:13:03;;;;;;;4.78;3.22;;;;;;;22.55;100.00;101930.28;5106044;28;20028;-72
2022/07/13 07:15:28;;;;;;;8.27;3.75;;;;;;;22.52;100.00;101935.72;5096096;28;20052;-70
2022/07/13 07:17:54;;;;;;;6.50;3.67;;;;;;;22.53;100.00;101934.81;5077652;28;20081;-70
2022/07/13 07:20:19;;;;;;;12.23;3.50;;;;;;;22.55;100.00;101924.94;5101407;28;20062;-71
2022/07/13 07:22:46;;;;;;;8.02;3.28;;;;;;;22.68;100.00;101919.34;5105837;28;20177;-71
2022/07/13 07:25:12;;;;;;;9.57;3.45;;;;;;;22.81;100.00;101925.41;5112991;28;20027;-71
2022/07/13 07:27:39;;;;;;;6.38;2.78;;;;;;;22.89;100.00;101916.31;5097938;28;20118;-72
2022/07/13 07:30:05;;;;;;;6.18;3.33;;;;;;;22.86;100.00;101924.41;5115951;28;20024;-72
2022/07/13 07:32:30;;;;;;;3.30;2.78;;;;;;;22.99;100.00;101916.13;5115610;28;20028;-71
2022/07/13 07:34:55;;;;;;;4.88;3.15;;;;;;;23.18;100.00;101922.09;5116211;28;20027;-70
2022/07/13 07:37:21;;;;;;;6.35;3.22;;;;;;;23.12;100.00;101915.00;5115578;28;20020;-71
2022/07/13 07:39:48;;;;;;;5.28;2.83;;;;;;;23.17;100.00;101923.91;5112126;28;20020;-70
2022/07/13 07:42:13;;;;;;;6.20;3.17;;;;;;;23.24;100.00;101917.50;5095387;28;20024;-70
2022/07/13 07:44:38;;;;;;;7.60;3.00;;;;;;;23.45;100.00;101919.78;5098861;28;20421;-71
2022/07/13 07:47:04;;;;;;;6.90;3.10;;;;;;;23.52;100.00;101918.72;5115691;28;20463;-71
2022/07/13 07:49:29;;;;;;;8.02;3.13;;;;;;;23.50;100.00;101920.59;5098531;28;20020;-71
2022/07/13 07:51:54;;;;;;;8.07;3.40;;;;;;;23.51;100.00;101922.38;5094667;28;20460;-71
2022/07/13 07:54:20;;;;;;;6.68;3.50;;;;;;;23.51;100.00;101928.59;5098946;28;20043;-69
2022/07/13 07:56:45;;;;;;;7.78;3.25;;;;;;;23.47;100.00;101929.59;5097112;28;20057;-70
2022/07/13 07:59:10;;;;;;;4.70;2.80;;;;;;;23.62;100.00;101930.19;5098809;28;20020;-71
2022/07/13 08:01:36;;;;;;;7.30;3.50;;;;;;;23.70;100.00;101928.25;5095097;28;20527;-70
2022/07/13 08:04:01;;;;;;;5.10;2.80;;;;;;;23.75;100.00;101929.00;5111551;28;20060;-71
2022/07/13 08:06:27;;;;;;;6.95;3.45;;;;;;;23.64;100.00;101928.34;5105978;28;20055;-70
2022/07/13 08:08:52;;;;;;;8.10;3.67;;;;;;;23.54;100.00;101939.28;5094610;28;20023;-72
2022/07/13 08:11:18;;;;;;;5.05;3.13;;;;;;;23.35;100.00;101938.75;5094371;28;20031;-72
2022/07/13 08:13:47;;;;;;;4.50;3.10;;;;;;;23.39;100.00;101935.09;5094585;28;20028;-71
2022/07/13 08:16:14;;;;;;;8.10;3.25;;;;;;;23.56;100.00;101941.94;5076564;28;20566;-71
2022/07/13 08:18:39;;;;;;;11.65;3.33;;;;;;;23.56;100.00;101937.47;5096976;28;20035;-72
2022/07/13 08:21:04;;;;;;;6.38;3.50;;;;;;;23.48;100.00;101939.41;5094694;28;20106;-72
2022/07/13 08:26:14;;;;;;;8.95;3.88;;;;;;;23.42;100.00;101931.47;5102687;28;20043;-71
2022/07/13 08:28:40;;;;;;;5.30;3.17;;;;;;;23.48;100.00;101939.41;5094501;28;20020;-71
2022/07/13 08:31:05;;;;;;;7.10;3.58;;;;;;;23.36;100.00;101934.31;5094379;28;20121;-71
2022/07/13 08:38:59;;;;;;;6.13;3.90;;;;;;;23.71;100.00;101935.34;5094554;28;20510;-71
2022/07/13 08:41:24;;;;;;;8.57;3.17;;;;;;;23.70;100.00;101939.00;5093881;28;20024;-71
2022/07/13 08:43:50;;;;;;;11.45;4.18;;;;;;;23.64;100.00;101942.66;5104787;28;20085;-72
2022/07/13 08:46:17;;;;;;;5.07;3.42;;;;;;;23.80;100.00;101940.53;5092453;28;20020;-70
2022/07/13 08:48:46;;;;;;;4.57;3.30;;;;;;;23.98;100.00;101947.34;5094470;28;20074;-71
2022/07/13 08:51:12;;;;;;;6.85;3.50;;;;;;;24.01;100.00;101944.63;5094027;28;20047;-71
2022/07/13 08:53:38;;;;;;;5.25;3.70;;;;;;;24.03;100.00;101945.44;5094020;28;20480;-71
2022/07/13 08:56:03;;;;;;;8.70;3.72;;;;;;;24.15;100.00;101941.59;5095287;28;20110;-71
2022/07/13 08:58:30;;;;;;;5.82;3.22;;;;;;;24.15;100.00;101938.03;5094209;28;20020;-70
2022/07/13 09:00:55;;;;;;;3.67;2.95;;;;;;;24.17;100.00;101939.78;5093734;28;20059;-71
2022/07/13 09:03:21;;;;;;;6.38;3.17;;;;;;;24.31;100.00;101946.63;5104194;28;20490;-71
2022/07/13 09:05:46;;;;;;;8.63;2.78;;;;;;;24.45;100.00;101949.88;5110305;28;20464;-71
2022/07/13 09:08:12;;;;;;;7.53;3.60;;;;;;;24.44;100.00;101934.66;5093905;28;20019;-71
2022/07/13 09:11:00;;;;;;;6.18;4.03;;;;;;;24.56;100.00;101947.81;5075785;28;20016;-71
2022/07/13 09:13:39;;;;;;;5.80;3.58;;;;;;;24.52;100.00;101946.09;5093693;28;20024;-71
2022/07/13 09:16:22;;;;;;;12.00;3.88;;;;;;;24.50;100.00;101944.38;5093726;28;20039;-71
2022/07/13 09:18:59;;;;;;;8.00;3.35;;;;;;;24.58;100.00;101937.91;5111345;28;20031;-70
2022/07/13 09:21:26;;;;;;;5.82;2.85;;;;;;;24.68;98.40;101949.34;5114393;28;20023;-70
2022/07/13 09:24:02;;;;;;;4.20;2.60;;;;;;;24.65;97.97;101953.91;5108534;28;20031;-70
2022/07/13 09:26:45;;;;;;;8.80;3.55;;;;;;;24.67;100.00;101952.94;5113956;28;20080;-70
2022/07/13 09:29:12;;;;;;;7.63;2.92;;;;;;;24.65;98.93;101956.59;5095887;28;20031;-71
2022/07/13 09:31:58;;;;;;;11.68;2.85;;;;;;;24.73;99.94;101949.25;5113744;28;20024;-70
2022/07/13 09:34:52;;;;;;;7.07;2.80;;;;;;;24.86;98.74;101950.69;5113888;28;20551;-71
2022/07/13 09:37:19;;;;;;;;;;;;;;;24.87;97.70;101954.28;5114206;28;20379;-71
2022/07/13 09:39:57;;;;;;;7.47;2.97;;;;;;;24.92;100.00;101955.06;5110484;28;19935;-70
2022/07/13 09:42:30;;;;;;;5.78;2.83;;;;;;;25.01;100.00;101954.78;5093681;28;20053;-70
2022/07/13 09:47:49;;;;;;;7.03;3.67;;;;;;;25.03;100.00;101968.22;5098106;28;20081;-70
2022/07/13 09:50:19;;;;;;;5.70;3.60;;;;;;;24.97;100.00;101963.88;5093304;28;20422;-70
2022/07/13 09:52:48;;;;;;;5.88;3.58;;;;;;;24.85;100.00;101967.78;5095650;28;20043;-71
2022/07/13 09:55:20;;;;;;;7.20;3.83;;;;;;;24.85;100.00;101970.47;5113424;28;20106;-71
2022/07/13 09:58:02;;;;;;;5.60;3.75;;;;;;;24.99;100.00;101970.13;5111447;28;20019;-71
2022/07/13 10:00:27;;;;;;;7.45;3.60;;;;;;;24.94;100.00;101974.72;5092924;28;20032;-70
2022/07/13 10:02:54;;;;;;;7.90;4.05;;;;;;;25.04;100.00;101976.25;5092689;28;20476;-71
2022/07/13 10:05:19;;;;;;;8.75;4.07;;;;;;;24.94;100.00;101963.09;5092733;28;20036;-72
2022/07/13 10:07:47;;;;;;;8.88;3.53;;;;;;;25.12;100.00;101973.34;5096835;28;20076;-71
2022/07/13 10:10:15;;;;;;;5.18;3.47;;;;;;;25.06;100.00;101973.53;5112995;28;20015;-72
2022/07/13 10:12:42;;;;;;;8.60;3.70;;;;;;;25.23;100.00;101970.38;5108113;28;20123;-72
2022/07/13 10:15:09;;;;;;;7.93;3.20;;;;;;;25.38;100.00;101969.09;5094916;28;20036;-71
2022/07/13 10:17:35;;;;;;;12.27;4.25;;;;;;;25.26;100.00;101973.00;5078244;28;20479;-72
2022/07/13 10:20:11;;;;;;;9.75;3.67;;;;;;;25.33;100.00;101984.50;5113181;28;20405;-70
2022/07/13 10:22:45;;;;;;;4.72;3.63;;;;;;;25.36;100.00;101981.75;5090425;28;20022;-71
2022/07/13 10:25:11;;;;;;;5.25;3.25;;;;;;;25.23;100.00;101982.03;5096142;28;20034;-71
2022/07/13 10:27:38;;;;;;;7.20;3.17;;;;;;;25.20;100.00;101992.91;5116710;28;20023;-71
2022/07/13 10:30:21;;;;;;;6.88;2.67;;;;;;;25.44;97.53;101998.59;5116563;28;20099;-71
2022/07/13 10:32:47;;;;;;;5.40;3.10;;;;;;;25.67;95.24;102000.63;5116604;28;20049;-71
2022/07/13 10:35:16;;;;;;;10.00;3.10;;;;;;;25.85;96.59;102011.81;5116417;28;20424;-71
2022/07/13 10:37:58;;;;;;;3.95;2.60;;;;;;;25.70;90.72;102011.31;5116479;28;20463;-71
2022/07/13 10:40:24;;;;;;;5.28;2.67;;;;;;;25.71;91.75;102010.41;5116394;28;20498;-71
2022/07/13 10:43:00;;;;;;;10.88;3.08;;;;;;;25.84;92.09;102021.75;5098011;28;20072;-71
2022/07/13 10:45:31;;;;;;;6.93;2.50;;;;;;;25.85;90.95;102023.47;5116280;28;20034;-71
2022/07/13 10:47:57;;;;;;;4.75;2.95;;;;;;;25.56;92.20;102010.84;5116183;28;20019;-72
2022/07/13 10:50:22;;;;;;;8.30;2.95;;;;;;;25.58;93.49;102014.38;5116301;28;20023;-71
2022/07/13 10:52:48;;;;;;;6.35;2.63;;;;;;;25.71;95.06;102014.94;5097793;28;20044;-71
2022/07/13 10:55:23;;;;;;;8.02;2.83;;;;;;;25.94;95.28;102016.94;5114567;28;20027;-71
2022/07/13 10:57:49;;;;;;;5.30;3.20;;;;;;;25.72;96.49;102022.06;5115937;28;20049;-71
2022/07/13 11:00:19;;;;;;;8.10;3.85;;;;;;;25.86;96.43;102019.88;5116055;28;20024;-71
2022/07/13 11:03:07;;;;;;;4.78;3.30;;;;;;;26.10;97.97;102014.72;5115948;28;20027;-70
2022/07/13 11:05:36;;;;;;;5.80;2.63;;;;;;;26.49;98.41;102017.09;5115942;28;20031;-70
2022/07/13 11:08:12;;;;;;;5.65;3.42;;;;;;;26.37;92.34;102007.59;5115930;28;20119;-71
2022/07/13 11:10:38;;;;;;;9.77;3.25;;;;;;;26.52;92.67;102014.31;5115685;28;20085;-70
2022/07/13 11:13:09;;;;;;;6.97;3.35;;;;;;;26.28;96.32;102020.50;5115777;28;20035;-71
2022/07/13 11:15:50;;;;;;;7.20;3.08;;;;;;;26.40;100.00;102020.97;5115682;28;20055;-71
2022/07/13 11:18:24;;;;;;;6.25;3.28;;;;;;;26.31;94.46;102031.19;5115600;28;20073;-71
2022/07/13 11:21:03;;;;;;;6.70;2.90;;;;;;;26.18;95.64;102041.44;5093882;28;20035;-71
2022/07/13 11:26:54;;;;;;;6.78;3.00;;;;;;;25.84;95.31;102046.00;5114863;28;20088;-72
2022/07/13 11:29:43;;;;;;;9.48;3.25;;;;;;;25.77;96.33;102052.47;5115462;28;20386;-71